Aviation Digital Data Service (ADDS)

Output produced by METARs form (0139 UTC 06 December 2019)
found at http://www.aviationweather.gov/metar/data/
 
LHPR 060115Z AUTO 16006KT 130V190 9000 OVC009 M01/M03 Q1026
LHPR 060045Z AUTO 18004KT 150V220 9000 OVC010 M01/M03 Q1026
LHPR 060015Z AUTO 17005KT 140V200 9000 OVC010 M01/M02 Q1026
LHPR 052345Z AUTO 16005KT 120V200 9000 OVC011 M01/M02 Q1026
LHPR 052315Z AUTO 16005KT 9000 OVC011 M00/M03 Q1026
LHPR 052245Z AUTO 18005KT 8000 OVC011 M00/M02 Q1027
LHPR 052215Z AUTO 16006KT 9000 OVC011 M00/M02 Q1027
LHPR 052145Z AUTO 17006KT 140V200 9000 OVC011 M00/M02 Q1027
LHPR 052115Z AUTO 18005KT 140V210 8000 OVC011 M00/M02 Q1027
LHPR 052045Z AUTO 15005KT 9000 OVC011 M00/M02 Q1027
LHPR 052015Z AUTO 14006KT 8000 OVC011 M00/M02 Q1027
LHPR 051945Z AUTO 13006KT 7000 OVC010 M01/M02 Q1027
TAF AMD LHPR 051913Z 0519/0603 12009KT 6000 BKN015 
     TEMPO 0519/0603 1500 FZBCFG BR OVC010